createdAt,value
2019-04-06T00:00:58.165Z,275.93
2019-04-06T00:03:31.147Z,271.82
2019-04-06T00:06:04.229Z,262.57
2019-04-06T00:08:36.848Z,253.18
2019-04-06T00:11:09.390Z,245.02
2019-04-06T00:13:43.014Z,262.63
2019-04-06T00:16:16.287Z,283.85
2019-04-06T00:18:50.479Z,255.03
2019-04-06T00:21:23.410Z,258.55
2019-04-06T00:23:56.783Z,246.43
2019-04-06T00:26:29.804Z,254.03
2019-04-06T00:29:04.541Z,220.82
2019-04-06T00:31:43.534Z,205.98
2019-04-06T00:34:17.450Z,220.67
2019-04-06T00:36:51.016Z,278.37
2019-04-06T00:39:24.492Z,277.80
2019-04-06T00:41:57.979Z,267.37
2019-04-06T00:44:31.336Z,266.77
2019-04-06T00:47:04.632Z,249.02
2019-04-06T00:49:37.540Z,249.82
2019-04-06T00:52:10.076Z,246.95
2019-04-06T00:54:42.935Z,239.53
2019-04-06T00:57:16.520Z,264.68
2019-04-06T00:59:50.388Z,262.65
2019-04-06T01:02:25.178Z,269.02
2019-04-06T01:04:58.097Z,265.65
2019-04-06T01:07:30.723Z,266.42
2019-04-06T01:10:04.193Z,272.37
2019-04-06T01:12:37.221Z,247.67
2019-04-06T01:15:10.369Z,289.48
2019-04-06T01:17:43.821Z,236.55
2019-04-06T01:20:16.724Z,257.52
2019-04-06T01:22:49.687Z,270.35
2019-04-06T01:25:22.714Z,259.30
2019-04-06T01:27:56.234Z,271.20
2019-04-06T01:30:29.702Z,263.73
2019-04-06T01:33:02.765Z,242.18
2019-04-06T01:35:36.137Z,265.62
2019-04-06T01:38:08.911Z,262.30
2019-04-06T01:40:41.941Z,264.27
2019-04-06T01:43:15.389Z,289.32
2019-04-06T01:45:48.941Z,282.37
2019-04-06T01:48:21.995Z,293.80
2019-04-06T01:50:56.429Z,282.68
2019-04-06T01:53:29.100Z,298.75
2019-04-06T01:56:02.890Z,264.10
2019-04-06T01:58:36.675Z,284.13
2019-04-06T02:01:31.938Z,256.45
2019-04-06T02:04:04.670Z,256.70
2019-04-06T02:06:37.707Z,234.83
2019-04-06T02:09:10.684Z,224.92
2019-04-06T02:11:44.100Z,256.50
2019-04-06T02:14:19.834Z,231.45
2019-04-06T02:16:53.412Z,209.05
2019-04-06T02:19:26.385Z,223.62
2019-04-06T02:21:59.370Z,225.03
2019-04-06T02:24:32.779Z,231.30
2019-04-06T02:27:05.876Z,248.40
2019-04-06T02:29:39.062Z,275.05
2019-04-06T02:32:38.023Z,261.60
2019-04-06T02:35:36.763Z,223.28
2019-04-06T02:38:44.213Z,206.82
2019-04-06T02:41:22.545Z,239.53
2019-04-06T02:43:55.941Z,234.43
2019-04-06T02:46:31.166Z,242.62
2019-04-06T02:49:04.501Z,244.37
2019-04-06T02:51:37.801Z,247.58
2019-04-06T02:54:10.434Z,206.13
2019-04-06T02:56:46.369Z,258.75
2019-04-06T02:59:17.608Z,228.75
2019-04-06T03:01:51.011Z,232.37
2019-04-06T03:04:24.001Z,247.58
2019-04-06T03:06:57.851Z,231.50
2019-04-06T03:09:30.447Z,198.32
2019-04-06T03:12:03.768Z,225.75
2019-04-06T03:14:36.496Z,227.47
2019-04-06T03:17:09.814Z,190.88
2019-04-06T03:19:43.923Z,231.13
2019-04-06T03:22:17.454Z,232.52
2019-04-06T03:24:50.459Z,236.28
2019-04-06T03:27:24.199Z,249.37
2019-04-06T03:29:59.166Z,222.17
2019-04-06T03:32:32.937Z,239.68
2019-04-06T03:35:06.121Z,236.87
2019-04-06T03:37:39.922Z,225.07
2019-04-06T03:40:13.456Z,204.13
2019-04-06T03:42:46.760Z,245.30
2019-04-06T03:45:20.142Z,240.52
2019-04-06T03:47:53.886Z,248.38
2019-04-06T03:50:27.777Z,229.25
2019-04-06T03:53:00.953Z,255.27
2019-04-06T03:55:33.343Z,227.45
2019-04-06T03:58:06.411Z,241.02
2019-04-06T04:00:39.413Z,233.15
2019-04-06T04:03:13.054Z,228.07
2019-04-06T04:05:46.089Z,236.00
2019-04-06T04:08:19.988Z,224.25
2019-04-06T04:10:52.208Z,227.15
2019-04-06T04:13:25.769Z,246.40
2019-04-06T04:15:59.761Z,230.07
2019-04-06T04:18:33.165Z,232.87
2019-04-06T04:21:09.039Z,237.85
2019-04-06T04:23:42.019Z,226.20
2019-04-06T04:26:15.158Z,217.05
2019-04-06T04:28:48.619Z,236.87
2019-04-06T04:31:21.851Z,229.82
2019-04-06T04:33:55.098Z,224.60
2019-04-06T04:36:28.937Z,208.95
2019-04-06T04:39:03.586Z,226.37
2019-04-06T04:41:39.389Z,246.68
2019-04-06T04:44:12.374Z,237.45
2019-04-06T04:46:44.961Z,231.60
2019-04-06T04:49:18.372Z,235.17
2019-04-06T04:51:51.729Z,198.62
2019-04-06T04:54:24.315Z,226.45
2019-04-06T04:56:57.312Z,223.20
2019-04-06T04:59:30.707Z,207.90
2019-04-06T05:02:05.826Z,231.28
2019-04-06T05:04:38.755Z,239.17
2019-04-06T05:07:11.302Z,218.00
2019-04-06T05:09:44.724Z,231.32
2019-04-06T05:12:18.714Z,210.30
2019-04-06T05:15:02.388Z,226.25
2019-04-06T05:17:35.919Z,224.60
2019-04-06T05:20:08.829Z,195.90
2019-04-06T05:22:41.792Z,216.50
2019-04-06T05:25:15.046Z,227.47
2019-04-06T05:27:52.696Z,216.35
2019-04-06T05:30:22.237Z,183.37
2019-04-06T05:32:55.189Z,183.32
2019-04-06T05:35:28.099Z,200.85
2019-04-06T05:38:01.599Z,192.57
2019-04-06T05:40:34.552Z,176.02
2019-04-06T05:43:08.101Z,181.87
2019-04-06T05:45:41.778Z,187.62
2019-04-06T05:48:15.281Z,187.40
2019-04-06T05:50:49.449Z,190.90
2019-04-06T05:53:22.689Z,178.42
2019-04-06T05:55:55.662Z,184.40
2019-04-06T05:58:28.268Z,164.22
2019-04-06T06:01:03.891Z,159.87
2019-04-06T06:03:40.141Z,138.75
2019-04-06T06:06:12.775Z,158.78
2019-04-06T06:08:46.685Z,141.05
2019-04-06T06:11:19.535Z,132.25
2019-04-06T06:13:52.547Z,132.95
2019-04-06T06:16:26.079Z,132.32
2019-04-06T06:19:00.853Z,123.67
2019-04-06T06:21:34.165Z,118.35
2019-04-06T06:24:07.180Z,115.95
2019-04-06T06:26:39.738Z,117.05
2019-04-06T06:29:13.519Z,120.60
2019-04-06T06:31:46.584Z,121.97
2019-04-06T06:34:18.875Z,104.58
2019-04-06T06:36:52.329Z,98.95
2019-04-06T06:39:26.002Z,109.05
2019-04-06T06:41:59.225Z,94.77
2019-04-06T06:44:31.447Z,106.78
2019-04-06T06:47:04.514Z,106.03
2019-04-06T06:49:37.743Z,95.25
2019-04-06T06:52:10.661Z,93.05
2019-04-06T06:54:44.506Z,102.87
2019-04-06T06:57:18.333Z,94.05
2019-04-06T06:59:52.153Z,94.17
2019-04-06T07:02:25.233Z,103.53
2019-04-06T07:04:58.684Z,94.70
2019-04-06T07:07:31.364Z,100.75
2019-04-06T07:10:06.242Z,96.72
2019-04-06T07:12:40.070Z,106.63
2019-04-06T07:15:13.636Z,97.97
2019-04-06T07:17:46.482Z,94.92
2019-04-06T07:20:19.645Z,93.97
2019-04-06T07:22:52.615Z,99.15
2019-04-06T07:25:25.386Z,101.60
2019-04-06T07:27:58.958Z,94.25
2019-04-06T07:30:32.404Z,96.60
2019-04-06T07:33:05.100Z,90.38
2019-04-06T07:35:38.169Z,110.25
2019-04-06T07:38:10.794Z,99.25
2019-04-06T07:40:44.237Z,96.72
2019-04-06T07:43:17.231Z,93.20
2019-04-06T07:45:50.737Z,89.90
2019-04-06T07:48:24.440Z,98.85
2019-04-06T07:50:57.836Z,90.22
2019-04-06T07:53:31.342Z,96.22
2019-04-06T07:56:04.230Z,89.67
2019-04-06T07:58:48.024Z,82.82
2019-04-06T08:01:14.040Z,87.72
2019-04-06T08:03:47.231Z,84.52
2019-04-06T08:06:20.969Z,84.55
2019-04-06T08:08:54.739Z,96.97
2019-04-06T08:11:27.408Z,93.67
2019-04-06T08:14:00.971Z,101.85
2019-04-06T08:16:34.301Z,89.28
2019-04-06T08:19:07.246Z,82.45
2019-04-06T08:21:40.857Z,93.78
2019-04-06T08:24:14.286Z,86.25
2019-04-06T08:26:46.971Z,90.00
2019-04-06T08:29:19.865Z,82.80
2019-04-06T08:31:53.254Z,89.37
2019-04-06T08:34:27.126Z,84.25
2019-04-06T08:37:00.162Z,81.53
2019-04-06T08:39:33.341Z,74.07
2019-04-06T08:42:06.571Z,89.52
2019-04-06T08:44:40.416Z,76.45
2019-04-06T08:47:13.462Z,88.15
2019-04-06T08:49:47.036Z,86.15
2019-04-06T08:52:20.194Z,74.58
2019-04-06T08:54:53.786Z,83.10
2019-04-06T08:57:27.728Z,76.28
2019-04-06T09:00:00.404Z,79.05
2019-04-06T09:02:34.014Z,72.17
2019-04-06T09:05:07.483Z,74.22
2019-04-06T09:07:40.929Z,74.05
2019-04-06T09:10:14.701Z,76.87
2019-04-06T09:12:48.085Z,78.83
2019-04-06T09:15:20.784Z,74.20
2019-04-06T09:17:53.473Z,65.32
2019-04-06T09:20:26.629Z,69.80
2019-04-06T09:23:00.298Z,64.55
2019-04-06T09:25:34.882Z,66.25
2019-04-06T09:28:08.372Z,66.30
2019-04-06T09:30:41.751Z,60.80
2019-04-06T09:33:14.311Z,72.20
2019-04-06T09:35:47.156Z,71.80
2019-04-06T09:38:20.209Z,71.53
2019-04-06T09:40:55.397Z,66.57
2019-04-06T09:43:29.119Z,67.47
2019-04-06T09:46:27.530Z,69.45
2019-04-06T09:49:22.774Z,65.12
2019-04-06T09:52:30.790Z,66.60
2019-04-06T09:55:25.199Z,64.05
2019-04-06T09:58:14.014Z,57.43
2019-04-06T10:01:01.760Z,60.67
2019-04-06T10:04:00.883Z,54.90
2019-04-06T10:06:56.794Z,61.87
2019-04-06T10:09:45.945Z,63.53
2019-04-06T10:12:35.826Z,56.57
2019-04-06T10:15:19.465Z,56.83
2019-04-06T10:18:14.549Z,60.47
2019-04-06T10:21:06.927Z,65.57
2019-04-06T10:24:02.195Z,63.37
2019-04-06T10:27:04.317Z,63.03
2019-04-06T10:30:02.377Z,61.07
2019-04-06T10:32:47.776Z,55.90
2019-04-06T10:35:58.193Z,59.53
2019-04-06T10:39:02.944Z,57.83
2019-04-06T10:41:57.746Z,57.37
2019-04-06T10:44:53.969Z,51.67
2019-04-06T10:47:49.887Z,53.53
2019-04-06T10:50:42.432Z,54.63
2019-04-06T10:53:40.759Z,60.17
2019-04-06T10:56:35.503Z,51.87
2019-04-06T10:59:31.149Z,50.13
2019-04-06T11:02:22.242Z,61.43
2019-04-06T11:05:15.328Z,47.10
2019-04-06T11:07:53.737Z,48.40
2019-04-06T11:10:52.637Z,45.13
2019-04-06T11:13:43.343Z,45.10
2019-04-06T11:16:38.615Z,43.10
2019-04-06T11:19:37.203Z,48.20
2019-04-06T11:22:32.333Z,51.03
2019-04-06T11:25:25.084Z,50.10
2019-04-06T11:28:17.415Z,45.97
2019-04-06T11:31:05.181Z,53.73
2019-04-06T11:33:53.486Z,50.63
2019-04-06T11:36:54.024Z,51.23
2019-04-06T11:39:44.959Z,47.80
2019-04-06T11:42:24.893Z,48.40
2019-04-06T11:45:05.261Z,49.80
2019-04-06T11:48:00.968Z,46.57
2019-04-06T11:51:02.957Z,48.67
2019-04-06T11:53:54.721Z,41.90
2019-04-06T11:56:40.646Z,47.03
2019-04-06T11:59:48.897Z,43.03
2019-04-06T12:02:39.031Z,48.73
2019-04-06T12:05:40.259Z,44.30
2019-04-06T12:08:36.322Z,42.83
2019-04-06T12:11:49.527Z,45.13
2019-04-06T12:14:45.805Z,45.63
2019-04-06T12:17:31.126Z,42.47
2019-04-06T12:20:14.130Z,38.43
2019-04-06T12:23:25.247Z,46.33
2019-04-06T12:26:16.372Z,41.80
2019-04-06T12:29:18.539Z,39.87
2019-04-06T12:32:05.726Z,37.97
2019-04-06T12:35:10.780Z,40.40
2019-04-06T12:38:07.022Z,36.37
2019-04-06T12:41:02.530Z,43.30
2019-04-06T12:43:55.209Z,38.57
2019-04-06T12:46:42.052Z,34.70
2019-04-06T12:49:28.946Z,37.70
2019-04-06T12:52:10.743Z,39.73
2019-04-06T12:54:51.684Z,33.57
2019-04-06T12:57:31.935Z,38.03
2019-04-06T13:00:31.154Z,35.43
2019-04-06T13:03:23.423Z,37.57
2019-04-06T13:06:06.567Z,34.20
2019-04-06T13:08:54.815Z,37.80
2019-04-06T13:11:51.059Z,36.90
2019-04-06T13:14:30.780Z,34.33
2019-04-06T13:17:29.197Z,36.23
2019-04-06T13:20:25.520Z,35.03
2019-04-06T13:23:20.838Z,32.90
2019-04-06T13:26:09.770Z,29.37
2019-04-06T13:29:02.323Z,38.83
2019-04-06T13:31:49.699Z,36.00
2019-04-06T13:34:41.428Z,30.20
2019-04-06T13:37:32.566Z,36.03
2019-04-06T13:40:21.673Z,33.53
2019-04-06T13:43:10.692Z,34.13
2019-04-06T13:45:53.452Z,33.43
2019-04-06T13:48:49.554Z,41.23
2019-04-06T13:51:42.219Z,32.70
2019-04-06T13:54:33.800Z,34.27
2019-04-06T13:57:41.165Z,32.90
2019-04-06T14:00:52.659Z,34.00
2019-04-06T14:03:45.068Z,34.00
2019-04-06T14:06:34.666Z,36.10
2019-04-06T14:09:25.954Z,36.97
2019-04-06T14:12:07.095Z,31.30
2019-04-06T14:15:12.032Z,34.47
2019-04-06T14:18:18.753Z,31.07
2019-04-06T14:21:23.110Z,34.57
2019-04-06T14:24:07.075Z,34.10
2019-04-06T14:26:59.603Z,35.10
2019-04-06T14:29:48.544Z,41.70
2019-04-06T14:32:46.035Z,30.43
2019-04-06T14:35:35.342Z,33.43
2019-04-06T14:38:41.135Z,29.43
2019-04-06T14:41:43.219Z,29.60
2019-04-06T14:44:45.114Z,31.33
2019-04-06T14:47:56.138Z,29.07
2019-04-06T14:51:00.973Z,30.70
2019-04-06T14:53:43.487Z,36.10
2019-04-06T14:56:36.218Z,26.43
2019-04-06T14:59:23.478Z,27.23
2019-04-06T15:02:12.861Z,23.33
2019-04-06T15:04:55.827Z,22.73
2019-04-06T15:07:35.725Z,21.00
2019-04-06T15:10:28.927Z,22.90
2019-04-06T15:13:08.927Z,22.60
2019-04-06T15:16:01.948Z,22.20
2019-04-06T18:12:06.417Z,39.30
2019-04-06T18:14:40.445Z,36.17
2019-04-06T18:17:13.968Z,34.13
2019-04-06T18:19:51.140Z,40.80
2019-04-06T18:22:24.499Z,36.63
2019-04-06T18:24:58.493Z,36.20
2019-04-06T18:27:32.883Z,41.50
2019-04-06T18:30:07.366Z,35.50
2019-04-06T18:32:58.327Z,34.43
2019-04-06T18:35:23.373Z,38.10
2019-04-06T18:38:07.880Z,35.33
2019-04-06T18:40:41.503Z,36.57
2019-04-06T18:43:18.501Z,34.87
2019-04-06T18:45:52.135Z,34.43
2019-04-06T18:48:25.799Z,33.77
2019-04-06T18:50:58.391Z,36.77
2019-04-06T18:53:32.131Z,34.97
2019-04-06T18:56:07.100Z,35.43
2019-04-06T18:58:41.113Z,40.10
2019-04-06T19:01:14.612Z,37.20
2019-04-06T19:03:48.035Z,32.63
2019-04-06T19:06:21.580Z,37.87
2019-04-06T19:08:55.120Z,39.03
2019-04-06T19:11:29.426Z,32.10
2019-04-06T19:14:02.038Z,39.03
2019-04-06T19:16:35.713Z,36.45
2019-04-06T19:19:09.950Z,35.95
2019-04-06T19:21:43.554Z,41.48
2019-04-06T19:24:16.619Z,36.40
2019-04-06T19:26:50.245Z,35.08
2019-04-06T19:29:23.959Z,35.92
2019-04-06T19:31:58.355Z,37.40
2019-04-06T19:34:32.966Z,38.88
2019-04-06T19:37:08.752Z,38.05
2019-04-06T19:39:42.566Z,36.83
2019-04-06T19:42:16.464Z,37.55
2019-04-06T19:44:50.062Z,35.20
2019-04-06T19:47:23.588Z,36.90
2019-04-06T19:49:57.151Z,37.90
2019-04-06T19:52:30.351Z,32.93
2019-04-06T19:55:03.341Z,38.40
2019-04-06T19:57:37.283Z,31.62
2019-04-06T20:00:11.326Z,40.85
2019-04-06T20:02:44.774Z,35.40
2019-04-06T20:05:17.335Z,33.98
2019-04-06T20:07:51.448Z,34.65
2019-04-06T20:10:24.816Z,34.10
2019-04-06T20:12:57.766Z,41.92
2019-04-06T20:15:31.223Z,35.78
2019-04-06T20:18:04.519Z,37.33
2019-04-06T20:20:38.726Z,38.50
2019-04-06T20:23:12.122Z,35.25
2019-04-06T20:25:48.726Z,36.73
2019-04-06T20:28:22.225Z,37.35
2019-04-06T20:30:55.789Z,33.28
2019-04-06T20:33:28.459Z,39.83
2019-04-06T20:36:02.478Z,38.35
2019-04-06T20:38:35.748Z,36.33
2019-04-06T20:41:09.805Z,40.15
2019-04-06T20:43:43.077Z,37.67
2019-04-06T20:46:16.184Z,36.65
2019-04-06T20:48:49.374Z,39.15
2019-04-06T20:51:22.632Z,36.83
2019-04-06T20:53:56.351Z,36.15
2019-04-06T20:56:29.822Z,38.92
2019-04-06T20:59:03.966Z,35.50
2019-04-06T21:01:37.158Z,35.00
2019-04-06T21:04:10.478Z,41.48
2019-04-06T21:06:43.743Z,35.45
2019-04-06T21:09:17.113Z,33.90
2019-04-06T21:11:51.075Z,35.00
2019-04-06T21:14:24.345Z,40.98
2019-04-06T21:17:00.164Z,35.65
2019-04-06T21:19:33.187Z,38.88
2019-04-06T21:22:06.937Z,40.03
2019-04-06T21:24:40.352Z,37.28
2019-04-06T21:27:15.229Z,35.35
2019-04-06T21:29:49.615Z,41.50
2019-04-06T21:32:23.385Z,40.45
2019-04-06T21:34:57.259Z,42.95
2019-04-06T21:37:32.458Z,45.75
2019-04-06T21:40:06.902Z,47.10
2019-04-06T21:42:40.983Z,45.12
2019-04-06T21:45:14.132Z,49.18
2019-04-06T21:47:47.817Z,45.50
2019-04-06T21:50:21.910Z,46.70
2019-04-06T21:52:55.916Z,49.90
2019-04-06T21:55:28.639Z,43.50
2019-04-06T21:58:03.003Z,49.38
2019-04-06T22:00:52.504Z,46.68
2019-04-06T22:03:26.093Z,47.48
2019-04-06T22:05:59.942Z,48.00
2019-04-06T22:08:33.207Z,72.45
2019-04-06T22:11:07.228Z,68.57
2019-04-06T22:13:40.910Z,54.58
2019-04-06T22:16:14.054Z,67.22
2019-04-06T22:18:49.823Z,55.20
2019-04-06T22:21:23.864Z,53.25
2019-04-06T22:23:57.911Z,52.62
2019-04-06T22:26:30.733Z,49.67
2019-04-06T22:29:04.779Z,47.75
2019-04-06T22:31:38.254Z,47.45
2019-04-06T22:34:12.576Z,49.93
2019-04-06T22:36:45.852Z,47.75
2019-04-06T22:39:19.111Z,45.33
2019-04-06T22:41:53.684Z,50.43
2019-04-06T22:44:27.054Z,67.08
2019-04-06T22:47:00.855Z,58.52
2019-04-06T22:49:33.948Z,58.83
2019-04-06T22:52:07.114Z,67.67
2019-04-06T22:54:43.579Z,60.05
2019-04-06T22:57:17.164Z,56.37
2019-04-06T22:59:49.818Z,56.83
2019-04-06T23:02:22.931Z,61.40
2019-04-06T23:05:03.033Z,64.40
2019-04-06T23:07:36.207Z,58.35
2019-04-06T23:10:09.189Z,58.45
2019-04-06T23:12:43.887Z,57.05
2019-04-06T23:15:17.900Z,63.98
2019-04-06T23:17:51.463Z,55.48
2019-04-06T23:20:25.443Z,61.50
2019-04-06T23:22:59.444Z,67.42
2019-04-06T23:25:33.714Z,73.07
2019-04-06T23:28:07.064Z,67.20
2019-04-06T23:30:39.749Z,65.85
2019-04-06T23:33:13.264Z,54.98
2019-04-06T23:35:46.327Z,60.98
2019-04-06T23:38:20.116Z,59.27
2019-04-06T23:40:53.566Z,59.93
2019-04-06T23:43:26.771Z,60.65
2019-04-06T23:45:59.921Z,58.35
2019-04-06T23:48:32.919Z,64.53
2019-04-06T23:51:05.278Z,56.77
2019-04-06T23:53:38.793Z,54.38
2019-04-06T23:56:12.144Z,61.13
2019-04-06T23:58:47.040Z,54.98
